Time;durP1;ratioP1;P1;durP2;ratioP2;P2;SDS_P1;SDS_P2;PMS_P1;PMS_P2;Temp;Humidity;BMP_temperature;BMP_pressure;BME280_temperature;BME280_humidity;BME280_pressure;Samples;Min_cycle;Max_cycle;Signal;HPM_P1;HPM_P2
2021/03/05 00:02:52;;;;;;;24.88;17.17;;;;;;;1.46;75.60;100202.97;10458199;28;20049;-63
2021/03/05 00:08:07;;;;;;;32.80;19.95;;;;;;;1.51;75.79;100209.97;10459239;28;20494;-64
2021/03/05 00:13:10;;;;;;;27.27;19.35;;;;;;;1.48;76.12;100212.50;10457588;28;20062;-62
2021/03/05 00:18:12;;;;;;;24.13;18.75;;;;;;;1.57;75.59;100222.09;10439921;28;20118;-62
2021/03/05 00:23:13;;;;;;;28.15;19.83;;;;;;;1.46;75.74;100203.88;10458317;28;20047;-62
2021/03/05 00:28:16;;;;;;;33.75;20.85;;;;;;;1.51;75.95;100201.31;10420537;28;629128;-63
2021/03/05 00:33:18;;;;;;;36.80;21.27;;;;;;;1.50;75.92;100205.59;10460824;28;20044;-64
2021/03/05 00:38:29;;;;;;;30.30;20.05;;;;;;;1.52;76.18;100211.69;10443438;28;20049;-63
2021/03/05 00:43:31;;;;;;;30.45;20.95;;;;;;;1.60;75.98;100218.66;10464041;28;20073;-62
2021/03/05 00:48:32;;;;;;;28.35;18.88;;;;;;;1.48;76.22;100217.69;10448085;28;20453;-63
2021/03/05 00:53:38;;;;;;;36.97;21.63;;;;;;;1.43;76.67;100228.88;10447811;28;20041;-64
2021/03/05 00:58:42;;;;;;;32.88;21.23;;;;;;;1.58;76.19;100223.81;10447568;28;20049;-63
2021/03/05 01:03:47;;;;;;;39.35;22.92;;;;;;;1.56;76.21;100224.66;10448055;28;20111;-63
2021/03/05 01:08:56;;;;;;;40.28;24.23;;;;;;;1.48;76.00;100216.84;10447021;28;20140;-63
2021/03/05 01:13:57;;;;;;;44.22;24.98;;;;;;;1.39;76.60;100211.56;10465160;28;20048;-61
2021/03/05 01:18:58;;;;;;;52.13;27.30;;;;;;;1.45;76.69;100214.22;10446501;28;20041;-63
2021/03/05 01:24:00;;;;;;;59.70;28.90;;;;;;;1.23;77.19;100202.78;10465434;28;20441;-63
2021/03/05 01:29:02;;;;;;;62.38;29.73;;;;;;;1.37;76.81;100208.09;10463353;28;20491;-67
2021/03/05 01:34:05;;;;;;;61.30;28.35;;;;;;;1.35;77.25;100202.03;10464480;28;20451;-65
2021/03/05 01:39:10;;;;;;;36.67;23.50;;;;;;;1.46;77.09;100197.81;10455630;28;20037;-65
2021/03/05 01:44:13;;;;;;;40.70;24.75;;;;;;;1.31;76.88;100197.69;10464063;28;20101;-65
2021/03/05 01:49:14;;;;;;;41.15;24.90;;;;;;;1.43;76.92;100200.38;10462908;28;20491;-67
2021/03/05 01:54:15;;;;;;;36.17;23.90;;;;;;;1.40;76.86;100197.75;10463344;28;20120;-67
2021/03/05 01:59:29;;;;;;;46.55;25.67;;;;;;;1.30;77.26;100193.38;10462734;28;20041;-66
2021/03/05 02:04:30;;;;;;;36.03;22.83;;;;;;;1.34;77.59;100201.19;10462333;28;20037;-66
2021/03/05 02:09:35;;;;;;;32.63;21.67;;;;;;;1.30;77.48;100196.81;10463011;28;20044;-66
2021/03/05 02:14:37;;;;;;;32.40;21.73;;;;;;;1.11;77.81;100200.13;10461670;28;20072;-66
2021/03/05 02:20:03;;;;;;;42.20;22.80;;;;;;;1.15;77.77;100200.16;10463023;28;20102;-67
2021/03/05 02:25:13;;;;;;;39.25;24.08;;;;;;;1.17;78.13;100207.94;10463486;28;20087;-67
2021/03/05 02:30:53;;;;;;;40.00;23.77;;;;;;;1.23;77.91;100206.25;10462290;28;20037;-66
2021/03/05 02:35:57;;;;;;;48.60;25.25;;;;;;;1.33;77.98;100206.31;10462236;28;20051;-67
2021/03/05 02:41:00;;;;;;;48.85;25.35;;;;;;;1.18;78.20;100214.84;10460781;28;20453;-67
2021/03/05 02:46:05;;;;;;;48.35;25.48;;;;;;;1.15;78.29;100218.28;10461859;28;20045;-66
2021/03/05 02:51:09;;;;;;;52.05;24.75;;;;;;;1.20;78.35;100229.56;10453229;28;20033;-65
2021/03/05 02:56:16;;;;;;;35.58;23.63;;;;;;;1.58;77.46;100233.31;10441115;28;20102;-66
2021/03/05 03:01:19;;;;;;;;;;;;;;;1.45;77.28;100238.38;10459479;28;20143;-64
2021/03/05 03:06:22;;;;;;;35.47;22.52;;;;;;;1.47;77.30;100236.69;10458508;28;19921;-67
2021/03/05 03:11:25;;;;;;;36.97;22.05;;;;;;;1.50;77.49;100241.00;10459459;28;20041;-67
2021/03/05 03:16:27;;;;;;;37.28;20.85;;;;;;;1.56;77.61;100250.59;10458374;28;20077;-65
2021/03/05 03:21:29;;;;;;;30.60;21.52;;;;;;;1.56;77.30;100256.63;10458474;28;20124;-66
2021/03/05 03:26:31;;;;;;;40.33;23.15;;;;;;;1.47;77.82;100256.56;10457566;28;20103;-66
2021/03/05 03:31:32;;;;;;;34.90;22.38;;;;;;;1.68;77.45;100266.19;10457679;28;20064;-66
2021/03/05 03:36:38;;;;;;;41.95;23.27;;;;;;;1.30;78.07;100269.34;10460635;28;20041;-67
2021/03/05 03:41:40;;;;;;;36.60;21.63;;;;;;;1.52;78.05;100275.59;10461114;28;20060;-67
2021/03/05 03:46:47;;;;;;;24.88;19.80;;;;;;;1.60;77.61;100278.25;10462517;28;20048;-66
2021/03/05 03:51:54;;;;;;;23.90;17.73;;;;;;;1.75;76.90;100286.13;10462912;28;20466;-66
2021/03/05 03:57:00;;;;;;;28.02;19.63;;;;;;;1.66;76.91;100288.66;10462106;28;20467;-66
2021/03/05 04:02:01;;;;;;;24.92;18.05;;;;;;;1.68;76.39;100297.28;10461164;28;20109;-66
2021/03/05 04:07:07;;;;;;;25.83;19.10;;;;;;;1.66;76.26;100299.03;10443699;28;20041;-66
2021/03/05 04:12:09;;;;;;;19.77;17.60;;;;;;;1.82;75.78;100305.22;10462626;28;20041;-66
2021/03/05 04:17:10;;;;;;;21.88;18.08;;;;;;;1.79;75.55;100316.41;10462939;28;20056;-67
2021/03/05 04:22:12;;;;;;;20.70;18.00;;;;;;;1.66;76.30;100324.94;10465688;28;20117;-66
2021/03/05 04:27:13;;;;;;;24.50;19.55;;;;;;;1.52;76.85;100324.81;10465447;28;20087;-66
2021/03/05 04:32:14;;;;;;;35.10;18.50;;;;;;;1.60;76.66;100341.31;10464737;28;20041;-66
2021/03/05 04:37:16;;;;;;;15.98;14.27;;;;;;;1.58;76.63;100350.75;10464543;28;20048;-65
2021/03/05 04:42:17;;;;;;;11.80;10.68;;;;;;;1.45;76.55;100357.53;10463871;28;20403;-65
2021/03/05 04:47:19;;;;;;;12.05;10.95;;;;;;;1.37;76.54;100369.53;10464589;28;20075;-65
2021/03/05 04:52:20;;;;;;;10.60;9.70;;;;;;;1.15;76.88;100381.41;10446053;28;20045;-66
2021/03/05 04:57:21;;;;;;;8.00;6.75;;;;;;;1.05;75.91;100401.97;10464121;28;20475;-65
2021/03/05 05:02:22;;;;;;;3.50;3.08;;;;;;;1.07;74.47;100403.75;10463568;28;20045;-65
2021/03/05 05:07:25;;;;;;;4.15;3.55;;;;;;;0.97;74.16;100412.22;10463762;28;20049;-65
2021/03/05 05:12:27;;;;;;;5.60;4.07;;;;;;;1.17;73.83;100417.66;10463825;28;20041;-67
2021/03/05 05:17:28;;;;;;;4.20;3.78;;;;;;;1.22;73.65;100426.34;10463605;28;20059;-66
2021/03/05 05:22:33;;;;;;;4.57;4.18;;;;;;;1.03;74.43;100440.78;10462836;28;20045;-66
2021/03/05 05:27:35;;;;;;;5.53;5.13;;;;;;;1.16;73.29;100434.06;10463367;28;20045;-66
2021/03/05 05:32:36;;;;;;;4.78;4.32;;;;;;;1.05;72.36;100441.66;10464121;28;20045;-65
2021/03/05 05:37:37;;;;;;;4.45;4.05;;;;;;;0.87;72.86;100447.47;10462528;28;20049;-66
2021/03/05 05:42:38;;;;;;;5.30;3.30;;;;;;;0.91;71.36;100462.19;10462289;28;20439;-66
2021/03/05 05:47:42;;;;;;;3.45;3.15;;;;;;;0.81;71.58;100473.28;10463079;28;20057;-66
2021/03/05 05:52:44;;;;;;;5.35;4.18;;;;;;;0.78;72.00;100482.69;10463708;28;20048;-65
2021/03/05 05:57:46;;;;;;;6.40;4.38;;;;;;;0.84;72.38;100494.03;10462611;28;20041;-68
2021/03/05 06:02:48;;;;;;;5.43;4.93;;;;;;;0.75;72.85;100505.09;10462623;28;20048;-68
2021/03/05 06:07:54;;;;;;;5.57;4.82;;;;;;;0.82;72.29;100511.22;10461767;28;20049;-66
2021/03/05 06:12:55;;;;;;;5.10;4.57;;;;;;;0.68;72.40;100517.91;10461909;28;20048;-66
2021/03/05 06:17:57;;;;;;;6.18;5.68;;;;;;;0.50;73.28;100532.28;10462507;28;20083;-66
2021/03/05 06:23:12;;;;;;;6.07;5.57;;;;;;;0.71;72.84;100536.94;10462582;28;20037;-66
2021/03/05 06:28:15;;;;;;;5.65;5.15;;;;;;;1.01;72.04;100556.38;10426828;28;20457;-66
2021/03/05 06:33:31;;;;;;;6.43;5.82;;;;;;;0.80;72.61;100575.06;10460529;28;20109;-66
2021/03/05 06:38:44;;;;;;;6.32;5.55;;;;;;;0.91;72.32;100578.66;10441186;28;20494;-66
2021/03/05 06:44:00;;;;;;;7.25;6.65;;;;;;;0.99;72.33;100590.00;10439086;28;20045;-66
2021/03/05 06:49:07;;;;;;;6.30;5.80;;;;;;;0.96;71.80;100600.31;10415436;28;20049;-66
2021/03/05 06:54:13;;;;;;;6.18;5.57;;;;;;;1.01;70.99;100606.44;10412462;28;20061;-66
2021/03/05 06:59:17;;;;;;;7.07;6.00;;;;;;;0.81;71.27;100623.38;10420064;28;20045;-67
2021/03/05 07:04:21;;;;;;;6.72;6.03;;;;;;;0.83;71.06;100623.38;10418962;28;20041;-65
2021/03/05 07:09:25;;;;;;;6.30;5.53;;;;;;;0.79;71.35;100637.13;10419286;28;20385;-66
2021/03/05 07:14:31;;;;;;;5.95;5.45;;;;;;;1.01;70.65;100650.44;10418345;28;20099;-66
2021/03/05 07:19:34;;;;;;;7.47;6.10;;;;;;;0.96;70.63;100661.56;10418382;28;20042;-67
2021/03/05 07:24:38;;;;;;;6.18;5.57;;;;;;;0.89;70.34;100676.13;10399791;28;20042;-67
2021/03/05 07:29:44;;;;;;;6.97;5.47;;;;;;;0.93;70.42;100682.22;10433863;28;20067;-66
2021/03/05 07:34:58;;;;;;;5.38;4.88;;;;;;;1.00;69.62;100695.31;10459277;28;20431;-64
2021/03/05 07:40:03;;;;;;;7.78;6.97;;;;;;;0.88;68.13;100700.25;10459067;28;20045;-64
2021/03/05 07:45:07;;;;;;;8.55;6.93;;;;;;;1.15;66.78;100710.25;10450610;28;20073;-65
2021/03/05 07:50:10;;;;;;;14.20;12.25;;;;;;;1.06;66.08;100724.72;10457922;28;20040;-65
2021/03/05 07:55:12;;;;;;;10.82;9.93;;;;;;;2.23;62.81;100717.91;10466886;28;20107;-63
2021/03/05 08:00:16;;;;;;;11.25;9.85;;;;;;;2.39;61.54;100722.47;10465620;28;20068;-65
2021/03/05 08:05:31;;;;;;;11.25;10.25;;;;;;;2.82;60.60;100728.13;10489352;28;20114;-66
2021/03/05 08:10:50;;;;;;;10.38;9.48;;;;;;;3.65;58.19;100721.97;10470472;28;20447;-65
2021/03/05 08:15:53;;;;;;;11.75;10.88;;;;;;;3.48;56.94;100736.53;10506714;28;20074;-66
2021/03/05 08:20:54;;;;;;;10.82;10.02;;;;;;;4.24;55.16;100737.06;10482350;28;20487;-65
2021/03/05 08:25:56;;;;;;;8.45;7.75;;;;;;;4.83;52.12;100743.38;10463047;28;20083;-64
2021/03/05 08:30:57;;;;;;;9.40;8.70;;;;;;;5.53;50.96;100745.22;10459798;28;20036;-65
2021/03/05 08:35:59;;;;;;;7.57;6.97;;;;;;;6.92;46.36;100759.72;10473910;28;20047;-63
2021/03/05 08:41:07;;;;;;;7.47;6.88;;;;;;;9.06;42.85;100755.03;10503604;28;20063;-65
2021/03/05 08:46:10;;;;;;;5.22;4.72;;;;;;;8.62;42.33;100772.22;10483854;28;20085;-64
2021/03/05 08:51:18;;;;;;;4.30;4.00;;;;;;;9.52;40.01;100757.88;10454714;28;20090;-65
2021/03/05 08:56:27;;;;;;;3.42;3.08;;;;;;;9.15;40.39;100765.41;10505696;28;20045;-64
2021/03/05 09:01:36;;;;;;;3.67;3.20;;;;;;;8.20;42.48;100787.50;10473142;28;20051;-66
2021/03/05 09:06:54;;;;;;;4.18;3.80;;;;;;;6.53;44.45;100793.81;10463228;28;20409;-64
2021/03/05 09:12:04;;;;;;;4.28;3.88;;;;;;;6.65;43.83;100792.94;10464053;28;20037;-64
2021/03/05 09:17:07;;;;;;;4.35;3.90;;;;;;;5.24;46.99;100806.03;10461479;28;20044;-65
2021/03/05 09:22:19;;;;;;;3.25;2.95;;;;;;;2.99;49.54;100819.19;10505926;28;20047;-63
2021/03/05 09:27:30;;;;;;;7.20;3.58;;;;;;;2.82;50.47;100812.94;10505087;28;20524;-66
2021/03/05 09:32:45;;;;;;;5.30;4.63;;;;;;;2.22;51.11;100820.81;10505358;28;20063;-65
2021/03/05 09:37:47;;;;;;;6.07;3.72;;;;;;;3.19;50.86;100825.50;10504949;28;20040;-65
2021/03/05 09:42:54;;;;;;;4.13;3.75;;;;;;;3.46;50.01;100822.31;10487031;28;20052;-63
2021/03/05 09:47:55;;;;;;;;;;;;;;;3.72;49.66;100832.97;10506668;28;20123;-63
2021/03/05 09:52:57;;;;;;;4.22;3.22;;;;;;;3.92;50.45;100830.50;10471641;28;19992;-63
2021/03/05 09:58:11;;;;;;;4.93;3.13;;;;;;;3.67;48.08;100834.63;10461927;28;20041;-65
2021/03/05 10:03:13;;;;;;;11.27;7.45;;;;;;;3.10;48.07;100843.59;10462551;28;20048;-64
2021/03/05 10:08:26;;;;;;;2.80;1.02;;;;;;;2.70;46.23;100844.78;10462707;28;20047;-64
2021/03/05 10:13:49;;;;;;;2.85;1.02;;;;;;;2.57;46.59;100848.97;10443639;28;20495;-64
2021/03/05 10:18:58;;;;;;;4.57;1.10;;;;;;;2.88;48.05;100864.94;10444011;28;20053;-65
2021/03/05 10:24:04;;;;;;;2.40;0.80;;;;;;;2.82;48.27;100870.06;10462573;28;20045;-64
2021/03/05 10:29:07;;;;;;;1.88;1.00;;;;;;;2.72;49.04;100861.28;10461043;28;20055;-62
2021/03/05 10:34:30;;;;;;;4.10;0.80;;;;;;;3.92;46.56;100872.13;10462332;28;20045;-65
2021/03/05 10:39:33;;;;;;;2.03;0.80;;;;;;;4.38;44.12;100875.06;10460086;28;20107;-64
2021/03/05 10:44:35;;;;;;;2.90;1.00;;;;;;;4.81;44.62;100888.38;10460458;28;20045;-64
2021/03/05 10:49:40;;;;;;;2.60;0.85;;;;;;;3.92;43.95;100894.66;10459651;28;20441;-64
2021/03/05 10:54:43;;;;;;;4.82;0.90;;;;;;;3.66;45.29;100897.00;10459928;28;20398;-64
2021/03/05 10:59:49;;;;;;;1.55;1.05;;;;;;;3.41;46.69;100909.78;10461413;28;20076;-64
2021/03/05 11:04:50;;;;;;;1.80;0.88;;;;;;;3.39;45.46;100906.25;10460278;28;20045;-64
2021/03/05 11:09:51;;;;;;;0.93;0.88;;;;;;;3.32;47.22;100908.75;10441619;28;20045;-63
2021/03/05 11:14:53;;;;;;;2.50;1.25;;;;;;;3.52;47.21;100917.69;10459784;28;20041;-63
2021/03/05 11:19:55;;;;;;;2.47;1.08;;;;;;;4.34;45.28;100928.00;10459243;28;20032;-63
2021/03/05 11:24:57;;;;;;;2.35;0.90;;;;;;;3.82;44.08;100932.72;10462311;28;20410;-64
2021/03/05 11:29:59;;;;;;;1.77;0.88;;;;;;;3.53;44.38;100927.22;10499715;28;20040;-64
2021/03/05 11:35:00;;;;;;;2.15;0.68;;;;;;;3.67;44.10;100927.34;10500550;28;20098;-64
2021/03/05 11:40:02;;;;;;;2.63;1.50;;;;;;;4.19;43.17;100925.25;10465595;28;20041;-64
2021/03/05 11:45:05;;;;;;;11.27;1.08;;;;;;;5.05;42.73;100918.91;10442105;28;20044;-64
2021/03/05 11:50:09;;;;;;;2.25;1.50;;;;;;;5.70;42.39;100926.06;10459054;28;20372;-65
2021/03/05 11:55:11;;;;;;;1.60;0.73;;;;;;;4.50;41.70;100939.38;10458803;28;20053;-64
2021/03/05 12:00:14;;;;;;;1.48;0.77;;;;;;;3.93;42.71;100940.63;10457019;28;20045;-64
2021/03/05 12:05:15;;;;;;;2.30;0.93;;;;;;;3.84;43.10;100938.81;10455778;28;20041;-64
2021/03/05 12:10:17;;;;;;;2.67;0.80;;;;;;;4.28;42.83;100938.34;10459904;28;20052;-62
2021/03/05 12:15:19;;;;;;;0.90;0.80;;;;;;;4.44;42.13;100934.16;10458503;28;20045;-62
2021/03/05 12:20:24;;;;;;;1.63;0.68;;;;;;;5.16;42.94;100931.97;10474094;28;20119;-62
2021/03/05 12:25:25;;;;;;;1.48;0.50;;;;;;;5.05;42.41;100939.75;10494485;28;20136;-63
2021/03/05 12:30:27;;;;;;;0.95;0.60;;;;;;;4.21;41.55;100955.66;10495060;28;20055;-63
2021/03/05 12:35:29;;;;;;;3.25;1.00;;;;;;;3.82;44.16;100953.53;10496470;28;20049;-64
2021/03/05 12:40:31;;;;;;;1.38;1.00;;;;;;;3.89;43.66;100964.84;10506207;28;20048;-63
2021/03/05 12:45:33;;;;;;;1.10;0.63;;;;;;;3.83;43.25;100957.00;10489828;28;20044;-64
2021/03/05 12:50:35;;;;;;;1.23;0.47;;;;;;;3.80;44.31;100965.63;10507696;28;20072;-64
2021/03/05 12:55:36;;;;;;;1.30;0.68;;;;;;;4.47;41.55;100965.38;10490252;28;20046;-64
2021/03/05 13:00:38;;;;;;;1.00;0.70;;;;;;;4.55;43.21;100969.78;10460180;28;20048;-64
2021/03/05 13:05:40;;;;;;;0.93;0.40;;;;;;;4.36;42.42;100973.13;10421969;28;20132;-64
2021/03/05 13:10:41;;;;;;;1.98;0.70;;;;;;;4.03;42.29;100984.97;10420289;28;20117;-62
2021/03/05 13:15:42;;;;;;;2.08;0.95;;;;;;;4.01;42.38;100985.81;10400861;28;20052;-64
2021/03/05 13:20:44;;;;;;;3.15;0.52;;;;;;;4.00;43.01;100992.75;10420091;28;20449;-63
2021/03/05 13:25:45;;;;;;;1.20;0.77;;;;;;;4.21;43.51;100999.91;10421568;28;20410;-62
2021/03/05 13:30:47;;;;;;;3.08;0.60;;;;;;;4.58;41.68;100994.13;10422398;28;20041;-64
2021/03/05 13:35:48;;;;;;;1.52;0.70;;;;;;;4.77;41.00;100998.59;10422852;28;20045;-67
2021/03/05 13:40:50;;;;;;;0.90;0.73;;;;;;;4.54;41.26;101007.13;10423329;28;20099;-66
2021/03/05 13:45:51;;;;;;;3.65;0.70;;;;;;;4.35;41.47;101007.81;10422503;28;20041;-67
2021/03/05 13:50:53;;;;;;;3.28;0.60;;;;;;;4.43;41.98;101015.72;10421633;28;20435;-66
2021/03/05 13:55:54;;;;;;;1.50;0.60;;;;;;;4.47;42.61;101022.66;10405047;28;20041;-66
2021/03/05 14:00:57;;;;;;;1.88;0.60;;;;;;;4.67;41.50;101012.44;10420587;28;20557;-66
2021/03/05 14:05:59;;;;;;;2.92;0.93;;;;;;;4.48;40.94;101040.06;10421773;28;20080;-66
2021/03/05 14:11:01;;;;;;;2.22;0.90;;;;;;;4.66;41.10;101016.78;10421516;28;20352;-68
2021/03/05 14:16:04;;;;;;;1.90;1.13;;;;;;;4.71;42.16;101024.63;10420794;28;20041;-66
2021/03/05 14:21:06;;;;;;;1.50;0.90;;;;;;;4.60;41.75;101026.25;10420954;28;20041;-68
2021/03/05 14:26:08;;;;;;;1.45;1.00;;;;;;;4.86;40.23;101034.28;10420359;28;20415;-67
2021/03/05 14:31:09;;;;;;;3.28;1.10;;;;;;;4.63;38.66;101034.09;10420024;28;20051;-67
2021/03/05 14:36:11;;;;;;;2.35;1.25;;;;;;;4.58;39.05;101051.41;10420343;28;20045;-67
2021/03/05 14:41:13;;;;;;;2.75;1.27;;;;;;;4.53;39.40;101048.78;10420266;28;20064;-68
2021/03/05 14:46:14;;;;;;;2.15;1.10;;;;;;;4.41;40.49;101056.47;10402596;28;20151;-68
2021/03/05 14:51:16;;;;;;;2.47;1.40;;;;;;;4.41;40.75;101054.72;10416689;28;20143;-65
2021/03/05 14:56:19;;;;;;;2.45;1.17;;;;;;;4.67;41.46;101057.56;10399986;28;20053;-67
2021/03/05 15:01:20;;;;;;;2.95;1.30;;;;;;;4.51;40.53;101060.88;10418731;28;20120;-67
2021/03/05 15:06:25;;;;;;;1.85;0.95;;;;;;;4.64;40.63;101056.66;10415344;28;20050;-66
2021/03/05 15:11:26;;;;;;;1.95;1.00;;;;;;;4.70;41.77;101055.00;10395269;28;20033;-67
2021/03/05 15:16:28;;;;;;;2.17;1.08;;;;;;;4.86;40.79;101063.81;10414578;28;20418;-67
2021/03/05 15:21:29;;;;;;;1.98;0.85;;;;;;;4.88;40.07;101075.13;10415962;28;20034;-67
2021/03/05 15:26:31;;;;;;;1.73;1.10;;;;;;;4.74;39.05;101069.81;10400620;28;20053;-66
2021/03/05 15:31:32;;;;;;;1.75;0.90;;;;;;;4.70;40.04;101081.06;10417467;28;20044;-67
2021/03/05 15:36:33;;;;;;;1.30;1.10;;;;;;;4.08;43.38;101088.22;10416628;28;20041;-67
2021/03/05 15:41:35;;;;;;;2.05;1.10;;;;;;;3.86;44.82;101094.91;10418526;28;20480;-67
2021/03/05 15:46:36;;;;;;;2.15;0.85;;;;;;;3.46;45.78;101112.56;10417481;28;20495;-67
2021/03/05 15:51:39;;;;;;;2.15;1.00;;;;;;;3.43;45.86;101105.59;10417744;28;20049;-68
2021/03/05 15:56:42;;;;;;;1.70;1.00;;;;;;;3.34;46.37;101113.25;10418708;28;20042;-68
2021/03/05 16:01:43;;;;;;;2.45;1.15;;;;;;;3.18;46.03;101113.84;10419237;28;20041;-67
2021/03/05 16:06:47;;;;;;;2.33;1.13;;;;;;;3.08;46.65;101119.75;10418069;28;20041;-67
2021/03/05 16:11:48;;;;;;;1.77;0.88;;;;;;;2.94;47.55;101130.81;10401935;28;20053;-67
2021/03/05 16:16:50;;;;;;;3.88;1.20;;;;;;;2.86;47.63;101129.78;10427711;28;20408;-67
2021/03/05 16:21:52;;;;;;;1.73;1.20;;;;;;;2.65;48.34;101142.38;10424944;28;20084;-67
2021/03/05 16:26:53;;;;;;;1.88;1.20;;;;;;;2.34;49.46;101148.72;10424572;28;20454;-67
2021/03/05 16:31:55;;;;;;;1.75;1.10;;;;;;;2.35;49.63;101155.69;10424898;28;20042;-68
2021/03/05 16:36:57;;;;;;;1.75;1.10;;;;;;;2.26;50.24;101165.03;10425816;28;20128;-68
2021/03/05 16:41:58;;;;;;;2.72;1.70;;;;;;;2.11;50.58;101171.63;10424852;28;20041;-67
2021/03/05 16:46:59;;;;;;;1.77;1.27;;;;;;;2.04;51.18;101181.00;10423582;28;20057;-67
2021/03/05 16:52:02;;;;;;;2.50;1.50;;;;;;;1.86;51.19;101196.13;10407323;28;20056;-67
2021/03/05 16:57:04;;;;;;;3.88;1.70;;;;;;;2.11;50.63;101201.03;10424953;28;20052;-68
2021/03/05 17:02:06;;;;;;;5.85;2.60;;;;;;;1.80;51.47;101204.66;10425495;28;20052;-68
2021/03/05 17:07:08;;;;;;;2.00;1.52;;;;;;;1.89;50.84;101211.78;10469772;28;20040;-68
2021/03/05 17:12:09;;;;;;;9.63;2.15;;;;;;;2.08;50.08;101231.19;10448901;28;20498;-67
2021/03/05 17:17:10;;;;;;;10.60;3.97;;;;;;;2.11;50.05;101226.09;10505401;28;20047;-68
2021/03/05 17:22:12;;;;;;;6.10;3.97;;;;;;;1.63;51.62;101240.56;10492447;28;20036;-67
2021/03/05 17:27:13;;;;;;;6.80;5.80;;;;;;;1.30;52.76;101256.16;10464510;28;20045;-67
2021/03/05 17:32:15;;;;;;;6.93;3.72;;;;;;;1.33;52.93;101266.63;10446960;28;20045;-67
2021/03/05 17:37:16;;;;;;;10.73;4.05;;;;;;;1.10;53.54;101275.47;10445628;28;20442;-68
2021/03/05 17:42:18;;;;;;;6.18;4.18;;;;;;;0.91;53.89;101279.28;10498043;28;20465;-67
2021/03/05 17:47:19;;;;;;;7.50;5.43;;;;;;;1.22;52.52;101286.16;10505843;28;20414;-68
2021/03/05 17:52:21;;;;;;;7.43;5.18;;;;;;;1.16;52.95;101292.06;10505251;28;20113;-69
2021/03/05 17:57:22;;;;;;;9.45;5.30;;;;;;;1.18;52.42;101297.28;10504599;28;20071;-68
2021/03/05 18:02:23;;;;;;;5.60;4.13;;;;;;;1.19;52.58;101304.22;10505082;28;20137;-67
2021/03/05 18:07:25;;;;;;;5.05;3.72;;;;;;;1.41;51.54;101305.66;10503369;28;20453;-67
2021/03/05 18:12:27;;;;;;;4.15;2.92;;;;;;;1.40;51.34;101303.91;10498066;28;20032;-68
2021/03/05 18:17:28;;;;;;;4.20;2.80;;;;;;;1.18;52.21;101310.22;10462657;28;20106;-67
2021/03/05 18:22:31;;;;;;;7.13;3.20;;;;;;;1.11;52.46;101316.09;10427858;28;20107;-67
2021/03/05 18:27:32;;;;;;;4.40;2.95;;;;;;;1.14;52.14;101317.03;10462018;28;20051;-67
2021/03/05 18:32:33;;;;;;;5.53;2.85;;;;;;;1.30;51.83;101315.75;10462169;28;20040;-67
2021/03/05 18:37:36;;;;;;;4.18;3.00;;;;;;;1.27;51.90;101324.28;10462460;28;20127;-68
2021/03/05 18:42:38;;;;;;;4.68;2.25;;;;;;;1.34;51.40;101343.50;10461615;28;20105;-67
2021/03/05 18:47:39;;;;;;;2.97;2.15;;;;;;;1.22;51.58;101341.44;10461893;28;20388;-67
2021/03/05 18:52:40;;;;;;;3.13;2.70;;;;;;;0.93;52.15;101351.00;10461496;28;20056;-67
2021/03/05 18:57:42;;;;;;;3.80;2.78;;;;;;;1.08;51.56;101357.44;10442810;28;20071;-68
2021/03/05 19:02:43;;;;;;;4.68;2.95;;;;;;;0.87;53.41;101360.28;10463067;28;20056;-68
2021/03/05 19:07:45;;;;;;;5.90;2.97;;;;;;;0.89;52.65;101366.41;10446419;28;20052;-68
2021/03/05 19:12:46;;;;;;;2.90;2.33;;;;;;;1.05;51.81;101371.16;10465973;28;20486;-68
2021/03/05 19:17:48;;;;;;;2.50;1.98;;;;;;;1.08;51.81;101379.03;10462937;28;20056;-68
2021/03/05 19:22:52;;;;;;;3.22;2.92;;;;;;;1.21;52.22;101377.66;10463366;28;20043;-69
2021/03/05 19:27:54;;;;;;;4.55;2.55;;;;;;;1.15;52.43;101386.16;10445864;28;20515;-68
2021/03/05 19:32:55;;;;;;;3.95;2.50;;;;;;;1.10;52.88;101386.84;10463712;28;20043;-67
2021/03/05 19:37:57;;;;;;;4.10;2.50;;;;;;;1.18;52.91;101398.28;10445888;28;20392;-68
2021/03/05 19:43:03;;;;;;;3.83;3.08;;;;;;;1.08;53.44;101398.88;10463749;28;20040;-68
2021/03/05 19:48:07;;;;;;;4.38;3.28;;;;;;;0.74;54.70;101408.22;10468878;28;20049;-68
2021/03/05 19:53:09;;;;;;;3.42;2.97;;;;;;;0.78;54.84;101416.97;10472725;28;20056;-69
2021/03/05 19:58:10;;;;;;;3.88;3.22;;;;;;;0.77;54.36;101425.56;10473689;28;20055;-68
2021/03/05 20:03:12;;;;;;;4.20;3.13;;;;;;;0.57;54.84;101436.16;10473220;28;20044;-69
2021/03/05 20:08:13;;;;;;;6.68;4.22;;;;;;;0.70;54.04;101438.31;10455908;28;20041;-68
2021/03/05 20:13:14;;;;;;;9.25;4.70;;;;;;;0.78;53.82;101445.44;10472157;28;20037;-68
2021/03/05 20:18:16;;;;;;;9.57;4.40;;;;;;;0.84;53.72;101448.19;10471849;28;20053;-68
2021/03/05 20:23:34;;;;;;;7.03;4.10;;;;;;;0.83;53.88;101449.91;10452654;28;20107;-70
2021/03/05 20:28:36;;;;;;;5.95;3.30;;;;;;;0.81;54.70;101459.34;10471378;28;20410;-68
2021/03/05 20:33:37;;;;;;;3.65;3.22;;;;;;;0.63;54.17;101459.66;10472323;28;20064;-71
2021/03/05 20:38:38;;;;;;;3.50;2.92;;;;;;;0.67;54.43;101465.84;10471668;28;20065;-69
2021/03/05 20:43:39;;;;;;;3.67;2.65;;;;;;;0.63;54.14;101466.56;10451948;28;20087;-69
2021/03/05 20:48:41;;;;;;;3.30;2.88;;;;;;;0.32;55.66;101473.34;10471098;28;20048;-69
2021/03/05 20:53:43;;;;;;;3.80;2.92;;;;;;;0.10;56.69;101481.22;10435535;28;20095;-70
2021/03/05 20:58:44;;;;;;;4.18;3.75;;;;;;;-0.10;57.75;101481.38;10468021;28;20044;-68
2021/03/05 21:03:46;;;;;;;4.82;4.32;;;;;;;-0.42;58.48;101495.75;10469112;28;20505;-69
2021/03/05 21:08:48;;;;;;;6.03;4.25;;;;;;;-0.49;59.15;101498.94;10468174;28;20063;-69
2021/03/05 21:13:49;;;;;;;5.88;4.05;;;;;;;-0.64;60.06;101501.84;10469195;28;20064;-68
2021/03/05 21:18:51;;;;;;;5.20;4.25;;;;;;;-0.70;60.16;101503.34;10468351;28;20072;-69
2021/03/05 21:24:05;;;;;;;4.85;4.22;;;;;;;-0.83;61.11;101505.44;10467466;28;20041;-69
2021/03/05 21:29:06;;;;;;;5.35;4.85;;;;;;;-1.12;61.19;101511.19;10467292;28;20501;-69
2021/03/05 21:34:08;;;;;;;5.97;5.35;;;;;;;-1.18;60.98;101509.25;10466590;28;20140;-69
2021/03/05 21:39:09;;;;;;;5.18;4.68;;;;;;;-1.37;61.56;101519.66;10465772;28;20103;-69
2021/03/05 21:44:11;;;;;;;6.63;6.03;;;;;;;-1.41;62.60;101525.53;10466896;28;20045;-69
2021/03/05 21:49:13;;;;;;;9.38;7.60;;;;;;;-1.16;61.48;101528.25;10465678;28;20041;-69
2021/03/05 21:54:28;;;;;;;11.07;7.10;;;;;;;-1.22;61.35;101528.00;10449966;28;20041;-68
2021/03/05 21:59:34;;;;;;;11.05;8.88;;;;;;;-1.27;61.33;101537.28;10466380;28;20055;-69
2021/03/05 22:04:35;;;;;;;10.25;8.70;;;;;;;-1.05;61.89;101550.19;10466364;28;20049;-69
2021/03/05 22:09:49;;;;;;;8.27;7.40;;;;;;;-0.95;62.70;101555.72;10465431;28;20041;-69
2021/03/05 22:14:51;;;;;;;11.48;7.80;;;;;;;-0.85;62.63;101560.41;10464823;28;20124;-69
2021/03/05 22:19:53;;;;;;;8.82;7.50;;;;;;;-0.96;61.84;101560.00;10464513;28;20513;-68
2021/03/05 22:24:54;;;;;;;9.70;6.88;;;;;;;-1.20;62.74;101564.19;10464329;28;20053;-68
2021/03/05 22:29:58;;;;;;;8.82;6.85;;;;;;;-1.07;62.54;101575.06;10464184;28;20041;-69
2021/03/05 22:35:00;;;;;;;7.85;6.93;;;;;;;-1.41;63.42;101572.81;10447620;28;20094;-69
2021/03/05 22:40:05;;;;;;;12.93;6.80;;;;;;;-1.61;63.57;101574.56;10445435;28;20041;-69
2021/03/05 22:45:07;;;;;;;7.47;6.78;;;;;;;-1.65;64.35;101579.53;10463584;28;20041;-70
2021/03/05 22:50:09;;;;;;;8.45;7.10;;;;;;;-1.93;64.75;101585.19;10464155;28;20040;-68
2021/03/05 22:55:12;;;;;;;9.40;7.10;;;;;;;-1.95;65.47;101581.66;10464023;28;20076;-70
2021/03/05 23:00:21;;;;;;;7.88;6.75;;;;;;;-2.01;65.17;101582.28;10464367;28;20071;-68
2021/03/05 23:05:24;;;;;;;8.90;6.72;;;;;;;-1.79;65.35;101582.41;10462521;28;20513;-70
2021/03/05 23:10:35;;;;;;;10.35;6.88;;;;;;;-1.83;65.08;101580.50;10465573;28;20099;-69
2021/03/05 23:15:42;;;;;;;9.40;8.02;;;;;;;-1.74;64.69;101587.75;10466802;28;20037;-70
2021/03/05 23:20:50;;;;;;;7.97;7.18;;;;;;;-1.76;65.89;101589.41;10431993;28;20045;-70
2021/03/05 23:25:52;;;;;;;8.80;6.63;;;;;;;-1.47;64.42;101593.19;10462634;28;20491;-69